sensor_id;sensor_type;location;lat;lon;timestamp;temperature;humidity
21163;DHT22;10739;52.198;20.908;2022-10-16T00:01:28;14.20;99.90
21163;DHT22;10739;52.198;20.908;2022-10-16T00:03:58;14.30;99.90
21163;DHT22;10739;52.198;20.908;2022-10-16T00:06:26;14.30;99.90
21163;DHT22;10739;52.198;20.908;2022-10-16T00:08:53;14.40;99.90
21163;DHT22;10739;52.198;20.908;2022-10-16T00:11:25;14.50;99.90
21163;DHT22;10739;52.198;20.908;2022-10-16T00:14:11;14.50;99.90
21163;DHT22;10739;52.198;20.908;2022-10-16T00:16:40;14.50;99.90
21163;DHT22;10739;52.198;20.908;2022-10-16T00:19:07;14.60;99.90
21163;DHT22;10739;52.198;20.908;2022-10-16T00:21:34;14.60;99.90
21163;DHT22;10739;52.198;20.908;2022-10-16T00:24:07;14.50;99.90
21163;DHT22;10739;52.198;20.908;2022-10-16T00:26:35;14.50;99.90
21163;DHT22;10739;52.198;20.908;2022-10-16T00:29:04;14.50;99.90
21163;DHT22;10739;52.198;20.908;2022-10-16T00:31:31;14.60;99.90
21163;DHT22;10739;52.198;20.908;2022-10-16T00:33:57;14.60;99.90
21163;DHT22;10739;52.198;20.908;2022-10-16T00:36:25;14.60;99.90
21163;DHT22;10739;52.198;20.908;2022-10-16T00:38:53;14.50;99.90
21163;DHT22;10739;52.198;20.908;2022-10-16T00:41:22;14.30;99.90
21163;DHT22;10739;52.198;20.908;2022-10-16T00:43:55;14.20;99.90
21163;DHT22;10739;52.198;20.908;2022-10-16T00:46:26;14.20;99.90
21163;DHT22;10739;52.198;20.908;2022-10-16T00:51:37;14.00;99.90
21163;DHT22;10739;52.198;20.908;2022-10-16T00:54:32;13.90;99.90
21163;DHT22;10739;52.198;20.908;2022-10-16T00:57:04;13.90;99.90
21163;DHT22;10739;52.198;20.908;2022-10-16T00:59:37;13.90;99.90
21163;DHT22;10739;52.198;20.908;2022-10-16T01:02:08;13.90;99.90
21163;DHT22;10739;52.198;20.908;2022-10-16T01:04:45;14.00;99.90
21163;DHT22;10739;52.198;20.908;2022-10-16T01:12:45;14.00;99.90
21163;DHT22;10739;52.198;20.908;2022-10-16T01:15:18;14.00;99.90
21163;DHT22;10739;52.198;20.908;2022-10-16T01:21:08;13.90;99.90
21163;DHT22;10739;52.198;20.908;2022-10-16T01:30:07;13.80;99.90
21163;DHT22;10739;52.198;20.908;2022-10-16T01:33:10;13.80;99.90
21163;DHT22;10739;52.198;20.908;2022-10-16T01:35:52;13.80;99.90
21163;DHT22;10739;52.198;20.908;2022-10-16T01:38:34;13.80;99.90
21163;DHT22;10739;52.198;20.908;2022-10-16T01:41:14;13.80;99.90
21163;DHT22;10739;52.198;20.908;2022-10-16T01:44:04;13.80;99.90
21163;DHT22;10739;52.198;20.908;2022-10-16T01:46:36;13.80;99.90
21163;DHT22;10739;52.198;20.908;2022-10-16T01:49:08;13.70;99.90
21163;DHT22;10739;52.198;20.908;2022-10-16T01:51:37;13.70;99.90
21163;DHT22;10739;52.198;20.908;2022-10-16T01:54:05;13.60;99.90
21163;DHT22;10739;52.198;20.908;2022-10-16T01:56:34;13.50;99.90
21163;DHT22;10739;52.198;20.908;2022-10-16T01:59:06;13.50;99.90
21163;DHT22;10739;52.198;20.908;2022-10-16T02:01:39;13.50;99.90
21163;DHT22;10739;52.198;20.908;2022-10-16T02:04:17;13.50;99.90
21163;DHT22;10739;52.198;20.908;2022-10-16T02:06:47;13.50;99.90
21163;DHT22;10739;52.198;20.908;2022-10-16T02:09:13;14.00;99.90
21163;DHT22;10739;52.198;20.908;2022-10-16T02:11:43;13.50;99.90
21163;DHT22;10739;52.198;20.908;2022-10-16T02:14:10;13.50;99.90
21163;DHT22;10739;52.198;20.908;2022-10-16T02:16:42;13.40;99.90
21163;DHT22;10739;52.198;20.908;2022-10-16T02:19:10;13.50;99.90
21163;DHT22;10739;52.198;20.908;2022-10-16T02:21:57;13.40;99.90
21163;DHT22;10739;52.198;20.908;2022-10-16T02:24:52;13.50;99.90
21163;DHT22;10739;52.198;20.908;2022-10-16T02:30:44;13.50;99.90
21163;DHT22;10739;52.198;20.908;2022-10-16T02:33:15;13.40;99.90
21163;DHT22;10739;52.198;20.908;2022-10-16T02:35:45;13.40;99.90
21163;DHT22;10739;52.198;20.908;2022-10-16T02:38:15;13.30;99.90
21163;DHT22;10739;52.198;20.908;2022-10-16T02:40:43;13.20;99.90
21163;DHT22;10739;52.198;20.908;2022-10-16T02:43:09;13.20;99.90
21163;DHT22;10739;52.198;20.908;2022-10-16T02:45:37;13.20;99.90
21163;DHT22;10739;52.198;20.908;2022-10-16T02:48:03;13.20;99.90
21163;DHT22;10739;52.198;20.908;2022-10-16T02:50:30;13.20;99.90
21163;DHT22;10739;52.198;20.908;2022-10-16T02:52:56;13.20;99.90
21163;DHT22;10739;52.198;20.908;2022-10-16T02:55:22;13.20;99.90
21163;DHT22;10739;52.198;20.908;2022-10-16T02:57:49;13.20;99.90
21163;DHT22;10739;52.198;20.908;2022-10-16T03:00:16;13.20;99.90
21163;DHT22;10739;52.198;20.908;2022-10-16T03:02:44;13.20;99.90
21163;DHT22;10739;52.198;20.908;2022-10-16T03:05:10;13.20;99.90
21163;DHT22;10739;52.198;20.908;2022-10-16T03:07:36;13.20;99.90
21163;DHT22;10739;52.198;20.908;2022-10-16T03:10:03;13.20;99.90
21163;DHT22;10739;52.198;20.908;2022-10-16T03:12:29;13.20;99.90
21163;DHT22;10739;52.198;20.908;2022-10-16T03:14:56;13.20;99.90
21163;DHT22;10739;52.198;20.908;2022-10-16T03:17:23;13.20;99.90
21163;DHT22;10739;52.198;20.908;2022-10-16T03:19:50;13.30;99.90
21163;DHT22;10739;52.198;20.908;2022-10-16T03:22:16;13.20;99.90
21163;DHT22;10739;52.198;20.908;2022-10-16T03:24:42;13.20;99.90
21163;DHT22;10739;52.198;20.908;2022-10-16T03:27:08;13.20;99.90
21163;DHT22;10739;52.198;20.908;2022-10-16T03:29:34;13.20;99.90
21163;DHT22;10739;52.198;20.908;2022-10-16T03:32:01;13.20;99.90
21163;DHT22;10739;52.198;20.908;2022-10-16T03:34:27;13.20;99.90
21163;DHT22;10739;52.198;20.908;2022-10-16T03:36:53;13.20;99.90
21163;DHT22;10739;52.198;20.908;2022-10-16T03:39:20;13.20;99.90
21163;DHT22;10739;52.198;20.908;2022-10-16T03:41:46;13.20;99.90
21163;DHT22;10739;52.198;20.908;2022-10-16T03:44:13;13.20;99.90
21163;DHT22;10739;52.198;20.908;2022-10-16T03:46:39;13.20;99.90
21163;DHT22;10739;52.198;20.908;2022-10-16T03:49:06;13.20;99.90
21163;DHT22;10739;52.198;20.908;2022-10-16T03:51:32;13.20;99.90
21163;DHT22;10739;52.198;20.908;2022-10-16T03:53:58;13.10;99.90
21163;DHT22;10739;52.198;20.908;2022-10-16T03:56:24;13.10;99.90
21163;DHT22;10739;52.198;20.908;2022-10-16T03:58:51;13.00;99.90
21163;DHT22;10739;52.198;20.908;2022-10-16T04:01:17;13.00;99.90
21163;DHT22;10739;52.198;20.908;2022-10-16T04:03:43;13.00;99.90
21163;DHT22;10739;52.198;20.908;2022-10-16T04:06:09;12.90;99.90
21163;DHT22;10739;52.198;20.908;2022-10-16T04:08:35;12.90;99.90
21163;DHT22;10739;52.198;20.908;2022-10-16T04:11:03;12.80;99.90
21163;DHT22;10739;52.198;20.908;2022-10-16T04:13:29;12.90;99.90
21163;DHT22;10739;52.198;20.908;2022-10-16T04:15:56;12.90;99.90
21163;DHT22;10739;52.198;20.908;2022-10-16T04:18:22;12.80;99.90
21163;DHT22;10739;52.198;20.908;2022-10-16T04:20:48;12.80;99.90
21163;DHT22;10739;52.198;20.908;2022-10-16T04:23:15;12.80;99.90
21163;DHT22;10739;52.198;20.908;2022-10-16T04:25:41;12.80;99.90
21163;DHT22;10739;52.198;20.908;2022-10-16T04:28:07;12.80;99.90
21163;DHT22;10739;52.198;20.908;2022-10-16T04:30:33;12.80;99.90
21163;DHT22;10739;52.198;20.908;2022-10-16T04:32:59;12.80;99.90
21163;DHT22;10739;52.198;20.908;2022-10-16T04:35:25;12.80;99.90
21163;DHT22;10739;52.198;20.908;2022-10-16T04:37:51;12.90;99.90
21163;DHT22;10739;52.198;20.908;2022-10-16T04:40:18;12.90;99.90
21163;DHT22;10739;52.198;20.908;2022-10-16T04:42:44;12.90;99.90
21163;DHT22;10739;52.198;20.908;2022-10-16T04:45:10;12.80;99.90
21163;DHT22;10739;52.198;20.908;2022-10-16T04:47:36;12.80;99.90
21163;DHT22;10739;52.198;20.908;2022-10-16T04:50:02;12.80;99.90
21163;DHT22;10739;52.198;20.908;2022-10-16T04:52:29;12.80;99.90
21163;DHT22;10739;52.198;20.908;2022-10-16T04:54:58;12.70;99.90
21163;DHT22;10739;52.198;20.908;2022-10-16T04:57:29;12.70;99.90
21163;DHT22;10739;52.198;20.908;2022-10-16T04:59:57;12.70;99.90
21163;DHT22;10739;52.198;20.908;2022-10-16T05:02:23;12.60;99.90
21163;DHT22;10739;52.198;20.908;2022-10-16T05:04:49;12.60;99.90
21163;DHT22;10739;52.198;20.908;2022-10-16T05:07:15;12.60;99.90
21163;DHT22;10739;52.198;20.908;2022-10-16T05:09:41;12.50;99.90
21163;DHT22;10739;52.198;20.908;2022-10-16T05:12:07;12.50;99.90
21163;DHT22;10739;52.198;20.908;2022-10-16T05:14:33;12.50;99.90
21163;DHT22;10739;52.198;20.908;2022-10-16T05:17:00;12.50;99.90
21163;DHT22;10739;52.198;20.908;2022-10-16T05:19:26;12.40;99.90
21163;DHT22;10739;52.198;20.908;2022-10-16T05:21:52;12.40;99.90
21163;DHT22;10739;52.198;20.908;2022-10-16T05:24:19;12.40;99.90
21163;DHT22;10739;52.198;20.908;2022-10-16T05:26:45;12.40;99.90
21163;DHT22;10739;52.198;20.908;2022-10-16T05:29:11;12.40;99.90
21163;DHT22;10739;52.198;20.908;2022-10-16T05:31:37;12.40;99.90
21163;DHT22;10739;52.198;20.908;2022-10-16T05:34:03;12.40;99.90
21163;DHT22;10739;52.198;20.908;2022-10-16T05:36:29;12.30;99.90
21163;DHT22;10739;52.198;20.908;2022-10-16T05:38:55;12.30;99.90
21163;DHT22;10739;52.198;20.908;2022-10-16T05:41:22;12.20;99.90
21163;DHT22;10739;52.198;20.908;2022-10-16T05:43:51;12.20;99.90
21163;DHT22;10739;52.198;20.908;2022-10-16T05:46:17;12.20;99.90
21163;DHT22;10739;52.198;20.908;2022-10-16T05:48:44;12.10;99.90
21163;DHT22;10739;52.198;20.908;2022-10-16T05:51:12;12.10;99.90
21163;DHT22;10739;52.198;20.908;2022-10-16T05:53:41;12.10;99.90
21163;DHT22;10739;52.198;20.908;2022-10-16T05:56:09;12.10;99.90
21163;DHT22;10739;52.198;20.908;2022-10-16T05:58:38;12.10;99.90
21163;DHT22;10739;52.198;20.908;2022-10-16T06:01:32;12.10;99.90
21163;DHT22;10739;52.198;20.908;2022-10-16T06:03:59;12.10;99.90
21163;DHT22;10739;52.198;20.908;2022-10-16T06:06:26;12.20;99.90
21163;DHT22;10739;52.198;20.908;2022-10-16T06:08:54;12.20;99.90
21163;DHT22;10739;52.198;20.908;2022-10-16T06:11:24;12.20;99.90
21163;DHT22;10739;52.198;20.908;2022-10-16T06:13:55;12.20;99.90
21163;DHT22;10739;52.198;20.908;2022-10-16T06:16:25;12.00;99.90
21163;DHT22;10739;52.198;20.908;2022-10-16T06:18:55;12.30;99.90
21163;DHT22;10739;52.198;20.908;2022-10-16T06:21:23;12.30;99.90
21163;DHT22;10739;52.198;20.908;2022-10-16T06:23:51;12.40;99.90
21163;DHT22;10739;52.198;20.908;2022-10-16T06:26:19;12.50;99.90
21163;DHT22;10739;52.198;20.908;2022-10-16T06:28:48;12.50;99.90
21163;DHT22;10739;52.198;20.908;2022-10-16T06:31:16;12.60;99.90
21163;DHT22;10739;52.198;20.908;2022-10-16T06:33:43;12.70;99.90
21163;DHT22;10739;52.198;20.908;2022-10-16T06:36:14;12.80;99.90
21163;DHT22;10739;52.198;20.908;2022-10-16T06:38:43;12.90;99.90
21163;DHT22;10739;52.198;20.908;2022-10-16T06:41:15;13.00;99.90
21163;DHT22;10739;52.198;20.908;2022-10-16T06:43:47;13.10;99.90
21163;DHT22;10739;52.198;20.908;2022-10-16T06:46:16;13.20;99.90
21163;DHT22;10739;52.198;20.908;2022-10-16T06:48:43;13.30;99.90
21163;DHT22;10739;52.198;20.908;2022-10-16T06:51:15;13.50;99.90
21163;DHT22;10739;52.198;20.908;2022-10-16T06:53:50;13.60;99.90
21163;DHT22;10739;52.198;20.908;2022-10-16T06:56:21;13.70;99.90
21163;DHT22;10739;52.198;20.908;2022-10-16T06:58:48;13.80;99.90
21163;DHT22;10739;52.198;20.908;2022-10-16T07:01:16;13.90;99.90
21163;DHT22;10739;52.198;20.908;2022-10-16T07:03:44;14.10;99.90
21163;DHT22;10739;52.198;20.908;2022-10-16T07:06:17;14.10;99.90
21163;DHT22;10739;52.198;20.908;2022-10-16T07:08:44;14.20;99.90
21163;DHT22;10739;52.198;20.908;2022-10-16T07:11:14;14.20;99.90
21163;DHT22;10739;52.198;20.908;2022-10-16T07:13:43;14.20;99.90
21163;DHT22;10739;52.198;20.908;2022-10-16T07:16:13;14.20;99.90
21163;DHT22;10739;52.198;20.908;2022-10-16T07:18:41;14.10;99.90
21163;DHT22;10739;52.198;20.908;2022-10-16T07:21:13;14.20;99.90
21163;DHT22;10739;52.198;20.908;2022-10-16T07:23:41;14.10;99.90
21163;DHT22;10739;52.198;20.908;2022-10-16T07:26:09;14.10;99.90
21163;DHT22;10739;52.198;20.908;2022-10-16T07:28:37;14.10;99.90
21163;DHT22;10739;52.198;20.908;2022-10-16T07:31:06;14.10;99.90
21163;DHT22;10739;52.198;20.908;2022-10-16T07:33:36;14.10;99.90
21163;DHT22;10739;52.198;20.908;2022-10-16T07:36:04;14.20;99.90
21163;DHT22;10739;52.198;20.908;2022-10-16T07:38:31;14.60;99.90
21163;DHT22;10739;52.198;20.908;2022-10-16T07:41:03;15.10;99.90
21163;DHT22;10739;52.198;20.908;2022-10-16T07:43:33;15.80;99.90
21163;DHT22;10739;52.198;20.908;2022-10-16T07:46:00;16.60;99.90
21163;DHT22;10739;52.198;20.908;2022-10-16T07:48:29;16.60;99.90
21163;DHT22;10739;52.198;20.908;2022-10-16T07:51:03;17.20;99.90
21163;DHT22;10739;52.198;20.908;2022-10-16T07:53:31;17.70;99.90
21163;DHT22;10739;52.198;20.908;2022-10-16T07:56:03;18.10;99.90
21163;DHT22;10739;52.198;20.908;2022-10-16T07:58:31;18.70;99.90
21163;DHT22;10739;52.198;20.908;2022-10-16T08:01:03;19.00;99.90
21163;DHT22;10739;52.198;20.908;2022-10-16T08:03:34;19.60;99.90
21163;DHT22;10739;52.198;20.908;2022-10-16T08:06:01;19.50;99.90
21163;DHT22;10739;52.198;20.908;2022-10-16T08:08:29;20.20;99.90
21163;DHT22;10739;52.198;20.908;2022-10-16T08:10:56;20.70;99.90
21163;DHT22;10739;52.198;20.908;2022-10-16T08:13:22;20.90;99.90
21163;DHT22;10739;52.198;20.908;2022-10-16T08:15:48;21.00;99.90
21163;DHT22;10739;52.198;20.908;2022-10-16T08:18:15;20.60;99.90
21163;DHT22;10739;52.198;20.908;2022-10-16T08:20:42;19.90;99.90
21163;DHT22;10739;52.198;20.908;2022-10-16T08:23:12;20.00;99.90
21163;DHT22;10739;52.198;20.908;2022-10-16T08:25:40;20.50;99.90
21163;DHT22;10739;52.198;20.908;2022-10-16T08:28:09;20.00;99.90
21163;DHT22;10739;52.198;20.908;2022-10-16T08:30:36;20.20;99.90
21163;DHT22;10739;52.198;20.908;2022-10-16T08:33:03;19.20;99.90
21163;DHT22;10739;52.198;20.908;2022-10-16T08:35:29;18.40;99.90
21163;DHT22;10739;52.198;20.908;2022-10-16T08:37:56;18.00;99.90
21163;DHT22;10739;52.198;20.908;2022-10-16T08:40:23;17.80;99.90
21163;DHT22;10739;52.198;20.908;2022-10-16T08:51:24;17.90;99.90
21163;DHT22;10739;52.198;20.908;2022-10-16T08:56:57;17.90;99.90
21163;DHT22;10739;52.198;20.908;2022-10-16T08:59:33;18.20;99.90
21163;DHT22;10739;52.198;20.908;2022-10-16T09:01:59;18.40;99.90
21163;DHT22;10739;52.198;20.908;2022-10-16T09:04:58;18.40;99.90
21163;DHT22;10739;52.198;20.908;2022-10-16T09:10:59;18.60;99.90
21163;DHT22;10739;52.198;20.908;2022-10-16T09:16:42;18.00;99.90
21163;DHT22;10739;52.198;20.908;2022-10-16T09:19:24;18.10;99.90
21163;DHT22;10739;52.198;20.908;2022-10-16T09:21:59;18.30;99.90
21163;DHT22;10739;52.198;20.908;2022-10-16T09:24:36;18.80;99.90
21163;DHT22;10739;52.198;20.908;2022-10-16T09:27:03;18.90;99.90
21163;DHT22;10739;52.198;20.908;2022-10-16T09:29:29;19.00;99.90
21163;DHT22;10739;52.198;20.908;2022-10-16T09:31:57;19.00;99.90
21163;DHT22;10739;52.198;20.908;2022-10-16T09:34:55;19.00;99.90
21163;DHT22;10739;52.198;20.908;2022-10-16T09:37:24;18.70;99.90
21163;DHT22;10739;52.198;20.908;2022-10-16T09:39:52;18.70;99.90
21163;DHT22;10739;52.198;20.908;2022-10-16T09:42:32;18.60;99.90
21163;DHT22;10739;52.198;20.908;2022-10-16T09:45:01;18.50;99.90
21163;DHT22;10739;52.198;20.908;2022-10-16T09:47:29;18.30;99.90
21163;DHT22;10739;52.198;20.908;2022-10-16T09:50:13;18.30;99.90
21163;DHT22;10739;52.198;20.908;2022-10-16T09:52:47;18.30;99.90
21163;DHT22;10739;52.198;20.908;2022-10-16T09:55:16;18.40;99.90
21163;DHT22;10739;52.198;20.908;2022-10-16T09:57:54;18.50;99.90
21163;DHT22;10739;52.198;20.908;2022-10-16T10:00:22;18.50;99.90
21163;DHT22;10739;52.198;20.908;2022-10-16T10:02:50;18.70;99.90
21163;DHT22;10739;52.198;20.908;2022-10-16T10:05:27;18.80;99.90
21163;DHT22;10739;52.198;20.908;2022-10-16T10:08:00;18.90;99.90
21163;DHT22;10739;52.198;20.908;2022-10-16T10:10:41;19.00;99.90
21163;DHT22;10739;52.198;20.908;2022-10-16T10:13:22;18.90;99.90
21163;DHT22;10739;52.198;20.908;2022-10-16T10:15:51;18.80;99.90
21163;DHT22;10739;52.198;20.908;2022-10-16T10:18:20;19.00;99.90
21163;DHT22;10739;52.198;20.908;2022-10-16T10:21:00;18.90;99.90
21163;DHT22;10739;52.198;20.908;2022-10-16T10:23:29;19.00;99.90
21163;DHT22;10739;52.198;20.908;2022-10-16T10:26:06;18.80;99.90
21163;DHT22;10739;52.198;20.908;2022-10-16T10:29:00;18.80;99.90
21163;DHT22;10739;52.198;20.908;2022-10-16T10:32:25;19.00;99.90
21163;DHT22;10739;52.198;20.908;2022-10-16T10:35:24;19.30;99.90
21163;DHT22;10739;52.198;20.908;2022-10-16T10:41:18;18.90;99.90
21163;DHT22;10739;52.198;20.908;2022-10-16T10:47:22;19.00;99.90
21163;DHT22;10739;52.198;20.908;2022-10-16T10:50:33;19.00;99.90
21163;DHT22;10739;52.198;20.908;2022-10-16T10:53:44;19.10;99.90
21163;DHT22;10739;52.198;20.908;2022-10-16T10:56:46;19.10;99.90
21163;DHT22;10739;52.198;20.908;2022-10-16T11:02:37;19.00;99.90
21163;DHT22;10739;52.198;20.908;2022-10-16T11:05:43;19.00;99.90
21163;DHT22;10739;52.198;20.908;2022-10-16T11:11:07;18.80;99.90
21163;DHT22;10739;52.198;20.908;2022-10-16T11:16:17;19.00;99.90
21163;DHT22;10739;52.198;20.908;2022-10-16T11:19:11;18.90;99.90
21163;DHT22;10739;52.198;20.908;2022-10-16T11:22:09;19.00;99.90
21163;DHT22;10739;52.198;20.908;2022-10-16T11:24:54;19.00;99.90
21163;DHT22;10739;52.198;20.908;2022-10-16T11:27:55;19.20;99.90
21163;DHT22;10739;52.198;20.908;2022-10-16T11:30:39;19.50;99.90
21163;DHT22;10739;52.198;20.908;2022-10-16T11:36:14;19.30;99.90
21163;DHT22;10739;52.198;20.908;2022-10-16T11:44:36;19.40;99.90
21163;DHT22;10739;52.198;20.908;2022-10-16T11:50:17;19.70;99.90
21163;DHT22;10739;52.198;20.908;2022-10-16T11:55:39;20.00;99.90
21163;DHT22;10739;52.198;20.908;2022-10-16T11:58:27;19.90;99.90
21163;DHT22;10739;52.198;20.908;2022-10-16T12:09:04;19.80;99.90
21163;DHT22;10739;52.198;20.908;2022-10-16T12:11:37;19.80;99.90
21163;DHT22;10739;52.198;20.908;2022-10-16T12:19:22;19.60;99.90
21163;DHT22;10739;52.198;20.908;2022-10-16T12:21:51;19.60;99.90
21163;DHT22;10739;52.198;20.908;2022-10-16T12:24:32;19.60;99.90
21163;DHT22;10739;52.198;20.908;2022-10-16T12:27:04;19.60;99.90
21163;DHT22;10739;52.198;20.908;2022-10-16T12:29:39;19.60;99.90
21163;DHT22;10739;52.198;20.908;2022-10-16T12:32:29;19.70;99.90
21163;DHT22;10739;52.198;20.908;2022-10-16T12:35:01;19.70;99.90
21163;DHT22;10739;52.198;20.908;2022-10-16T12:37:36;19.60;99.90
21163;DHT22;10739;52.198;20.908;2022-10-16T12:40:14;19.70;99.90
21163;DHT22;10739;52.198;20.908;2022-10-16T12:42:52;19.60;99.90
21163;DHT22;10739;52.198;20.908;2022-10-16T12:45:33;19.70;99.90
21163;DHT22;10739;52.198;20.908;2022-10-16T12:48:02;19.60;99.90
21163;DHT22;10739;52.198;20.908;2022-10-16T12:50:32;19.60;99.90
21163;DHT22;10739;52.198;20.908;2022-10-16T12:53:02;19.70;99.90
21163;DHT22;10739;52.198;20.908;2022-10-16T13:07:14;19.30;99.90
21163;DHT22;10739;52.198;20.908;2022-10-16T13:18:40;19.30;99.90
21163;DHT22;10739;52.198;20.908;2022-10-16T13:30:11;19.30;99.90
21163;DHT22;10739;52.198;20.908;2022-10-16T13:32:49;19.20;99.90
21163;DHT22;10739;52.198;20.908;2022-10-16T13:35:25;19.20;99.90
21163;DHT22;10739;52.198;20.908;2022-10-16T13:38:14;19.20;99.90
21163;DHT22;10739;52.198;20.908;2022-10-16T13:40:56;19.20;99.90
21163;DHT22;10739;52.198;20.908;2022-10-16T13:43:35;19.20;99.90
21163;DHT22;10739;52.198;20.908;2022-10-16T13:46:17;19.20;99.90
21163;DHT22;10739;52.198;20.908;2022-10-16T13:48:57;19.30;99.90
21163;DHT22;10739;52.198;20.908;2022-10-16T13:51:30;19.20;99.90
21163;DHT22;10739;52.198;20.908;2022-10-16T13:53:58;19.20;99.90
21163;DHT22;10739;52.198;20.908;2022-10-16T13:56:27;19.20;99.90
21163;DHT22;10739;52.198;20.908;2022-10-16T14:01:43;19.30;99.90
21163;DHT22;10739;52.198;20.908;2022-10-16T14:04:12;19.20;99.90
21163;DHT22;10739;52.198;20.908;2022-10-16T14:06:42;19.20;99.90
21163;DHT22;10739;52.198;20.908;2022-10-16T14:11:58;19.20;99.90
21163;DHT22;10739;52.198;20.908;2022-10-16T14:14:34;19.20;99.90
21163;DHT22;10739;52.198;20.908;2022-10-16T14:17:18;19.10;99.90
21163;DHT22;10739;52.198;20.908;2022-10-16T14:19:58;19.10;99.90
21163;DHT22;10739;52.198;20.908;2022-10-16T14:22:37;19.10;99.90
21163;DHT22;10739;52.198;20.908;2022-10-16T14:28:18;19.10;99.90
21163;DHT22;10739;52.198;20.908;2022-10-16T14:30:57;19.10;99.90
21163;DHT22;10739;52.198;20.908;2022-10-16T14:33:32;19.10;99.90
21163;DHT22;10739;52.198;20.908;2022-10-16T14:36:04;19.10;99.90
21163;DHT22;10739;52.198;20.908;2022-10-16T14:38:38;19.10;99.90
21163;DHT22;10739;52.198;20.908;2022-10-16T14:41:06;19.10;99.90
21163;DHT22;10739;52.198;20.908;2022-10-16T14:43:42;19.00;99.90
21163;DHT22;10739;52.198;20.908;2022-10-16T14:46:16;19.10;99.90
21163;DHT22;10739;52.198;20.908;2022-10-16T14:49:02;19.00;99.90
21163;DHT22;10739;52.198;20.908;2022-10-16T14:51:39;19.00;99.90
21163;DHT22;10739;52.198;20.908;2022-10-16T14:54:18;19.00;99.90
21163;DHT22;10739;52.198;20.908;2022-10-16T14:56:51;19.00;99.90
21163;DHT22;10739;52.198;20.908;2022-10-16T14:59:29;19.00;99.90
21163;DHT22;10739;52.198;20.908;2022-10-16T15:01:58;19.00;99.90
21163;DHT22;10739;52.198;20.908;2022-10-16T15:04:24;18.90;99.90
21163;DHT22;10739;52.198;20.908;2022-10-16T15:06:50;19.00;99.90
21163;DHT22;10739;52.198;20.908;2022-10-16T15:09:16;19.00;99.90
21163;DHT22;10739;52.198;20.908;2022-10-16T15:11:43;18.90;99.90
21163;DHT22;10739;52.198;20.908;2022-10-16T15:14:13;18.90;99.90
21163;DHT22;10739;52.198;20.908;2022-10-16T15:16:39;18.90;99.90
21163;DHT22;10739;52.198;20.908;2022-10-16T15:19:05;18.80;99.90
21163;DHT22;10739;52.198;20.908;2022-10-16T15:21:32;18.80;99.90
21163;DHT22;10739;52.198;20.908;2022-10-16T15:23:59;18.80;99.90
21163;DHT22;10739;52.198;20.908;2022-10-16T15:26:27;18.70;99.90
21163;DHT22;10739;52.198;20.908;2022-10-16T15:28:55;18.70;99.90
21163;DHT22;10739;52.198;20.908;2022-10-16T15:31:22;18.60;99.90
21163;DHT22;10739;52.198;20.908;2022-10-16T15:33:50;18.60;99.90
21163;DHT22;10739;52.198;20.908;2022-10-16T15:36:36;18.60;99.90
21163;DHT22;10739;52.198;20.908;2022-10-16T15:39:05;18.60;99.90
21163;DHT22;10739;52.198;20.908;2022-10-16T15:41:36;18.60;99.90
21163;DHT22;10739;52.198;20.908;2022-10-16T15:44:02;18.50;99.90
21163;DHT22;10739;52.198;20.908;2022-10-16T15:46:29;18.50;99.90
21163;DHT22;10739;52.198;20.908;2022-10-16T15:48:58;18.40;99.90
21163;DHT22;10739;52.198;20.908;2022-10-16T15:51:25;18.40;99.90
21163;DHT22;10739;52.198;20.908;2022-10-16T15:53:58;18.40;99.90
21163;DHT22;10739;52.198;20.908;2022-10-16T15:56:27;18.40;99.90
21163;DHT22;10739;52.198;20.908;2022-10-16T15:58:55;18.40;99.90
21163;DHT22;10739;52.198;20.908;2022-10-16T16:01:21;18.30;99.90
21163;DHT22;10739;52.198;20.908;2022-10-16T16:03:47;18.30;99.90
21163;DHT22;10739;52.198;20.908;2022-10-16T16:06:22;18.30;99.90
21163;DHT22;10739;52.198;20.908;2022-10-16T16:08:51;18.20;99.90
21163;DHT22;10739;52.198;20.908;2022-10-16T16:11:18;18.20;99.90
21163;DHT22;10739;52.198;20.908;2022-10-16T16:13:45;18.10;99.90
21163;DHT22;10739;52.198;20.908;2022-10-16T16:16:13;18.10;99.90
21163;DHT22;10739;52.198;20.908;2022-10-16T16:18:41;18.10;99.90
21163;DHT22;10739;52.198;20.908;2022-10-16T16:21:10;18.10;99.90
21163;DHT22;10739;52.198;20.908;2022-10-16T16:23:37;18.00;99.90
21163;DHT22;10739;52.198;20.908;2022-10-16T16:26:23;18.00;99.90
21163;DHT22;10739;52.198;20.908;2022-10-16T16:28:52;18.00;99.90
21163;DHT22;10739;52.198;20.908;2022-10-16T16:31:20;17.90;99.90
21163;DHT22;10739;52.198;20.908;2022-10-16T16:33:50;17.90;99.90
21163;DHT22;10739;52.198;20.908;2022-10-16T16:36:17;17.90;99.90
21163;DHT22;10739;52.198;20.908;2022-10-16T16:38:45;17.80;99.90
21163;DHT22;10739;52.198;20.908;2022-10-16T16:41:21;17.80;99.90
21163;DHT22;10739;52.198;20.908;2022-10-16T16:43:49;17.80;99.90
21163;DHT22;10739;52.198;20.908;2022-10-16T16:46:17;17.70;99.90
21163;DHT22;10739;52.198;20.908;2022-10-16T16:48:45;17.70;99.90
21163;DHT22;10739;52.198;20.908;2022-10-16T16:51:16;17.60;99.90
21163;DHT22;10739;52.198;20.908;2022-10-16T16:53:47;17.60;99.90
21163;DHT22;10739;52.198;20.908;2022-10-16T16:56:17;17.50;99.90
21163;DHT22;10739;52.198;20.908;2022-10-16T16:58:48;17.50;99.90
21163;DHT22;10739;52.198;20.908;2022-10-16T17:01:16;17.50;99.90
21163;DHT22;10739;52.198;20.908;2022-10-16T17:03:44;17.40;99.90
21163;DHT22;10739;52.198;20.908;2022-10-16T17:06:12;17.40;99.90
21163;DHT22;10739;52.198;20.908;2022-10-16T17:08:40;17.40;99.90
21163;DHT22;10739;52.198;20.908;2022-10-16T17:11:13;17.30;99.90
21163;DHT22;10739;52.198;20.908;2022-10-16T17:13:43;17.30;99.90
21163;DHT22;10739;52.198;20.908;2022-10-16T17:16:10;17.20;99.90
21163;DHT22;10739;52.198;20.908;2022-10-16T17:18:36;17.20;99.90
21163;DHT22;10739;52.198;20.908;2022-10-16T17:21:05;17.20;99.90
21163;DHT22;10739;52.198;20.908;2022-10-16T17:23:34;17.20;99.90
21163;DHT22;10739;52.198;20.908;2022-10-16T17:26:13;17.10;99.90
21163;DHT22;10739;52.198;20.908;2022-10-16T17:28:42;17.10;99.90
21163;DHT22;10739;52.198;20.908;2022-10-16T17:31:14;17.10;99.90
21163;DHT22;10739;52.198;20.908;2022-10-16T17:33:46;17.00;99.90
21163;DHT22;10739;52.198;20.908;2022-10-16T17:36:13;17.00;99.90
21163;DHT22;10739;52.198;20.908;2022-10-16T17:38:41;17.00;99.90
21163;DHT22;10739;52.198;20.908;2022-10-16T17:43:41;16.90;99.90
21163;DHT22;10739;52.198;20.908;2022-10-16T17:46:09;16.90;99.90